sensor_id;sensor_type;location;lat;lon;timestamp;pressure;altitude;pressure_sealevel;temperature;humidity
21594;BME280;10959;51.328;7.322;2022-12-05T00:01:16;98704.66;;;2.52;92.16
21594;BME280;10959;51.328;7.322;2022-12-05T00:03:43;98717.31;;;2.38;92.96
21594;BME280;10959;51.328;7.322;2022-12-05T00:06:09;98716.25;;;2.48;93.21
21594;BME280;10959;51.328;7.322;2022-12-05T00:08:37;98715.88;;;2.68;92.48
21594;BME280;10959;51.328;7.322;2022-12-05T00:11:10;98713.94;;;2.76;92.11
21594;BME280;10959;51.328;7.322;2022-12-05T00:13:37;98715.00;;;2.68;91.75
21594;BME280;10959;51.328;7.322;2022-12-05T00:16:06;98714.03;;;2.72;91.83
21594;BME280;10959;51.328;7.322;2022-12-05T00:18:32;98716.75;;;2.69;91.94
21594;BME280;10959;51.328;7.322;2022-12-05T00:20:59;98727.69;;;2.53;92.42
21594;BME280;10959;51.328;7.322;2022-12-05T00:23:25;98718.63;;;2.64;92.48
21594;BME280;10959;51.328;7.322;2022-12-05T00:25:53;98724.25;;;2.47;92.19
21594;BME280;10959;51.328;7.322;2022-12-05T00:28:19;98724.13;;;2.54;92.75
21594;BME280;10959;51.328;7.322;2022-12-05T00:30:46;98725.50;;;2.25;92.82
21594;BME280;10959;51.328;7.322;2022-12-05T00:33:12;98733.94;;;2.49;92.88
21594;BME280;10959;51.328;7.322;2022-12-05T00:35:39;98726.13;;;2.40;93.45
21594;BME280;10959;51.328;7.322;2022-12-05T00:38:05;98727.69;;;2.53;93.25
21594;BME280;10959;51.328;7.322;2022-12-05T00:40:34;98715.94;;;2.65;92.72
21594;BME280;10959;51.328;7.322;2022-12-05T00:43:02;98725.25;;;2.39;92.94
21594;BME280;10959;51.328;7.322;2022-12-05T00:45:28;98712.66;;;2.51;93.20
21594;BME280;10959;51.328;7.322;2022-12-05T00:47:55;98709.97;;;2.52;93.54
21594;BME280;10959;51.328;7.322;2022-12-05T00:50:21;98711.81;;;2.47;93.36
21594;BME280;10959;51.328;7.322;2022-12-05T00:52:48;98703.97;;;2.41;93.51
21594;BME280;10959;51.328;7.322;2022-12-05T00:55:14;98708.09;;;2.57;93.21
21594;BME280;10959;51.328;7.322;2022-12-05T00:57:40;98704.66;;;2.52;93.30
21594;BME280;10959;51.328;7.322;2022-12-05T01:00:10;98700.06;;;2.61;92.99
21594;BME280;10959;51.328;7.322;2022-12-05T01:02:36;98701.16;;;2.50;93.20
21594;BME280;10959;51.328;7.322;2022-12-05T01:05:03;98698.19;;;2.67;93.32
21594;BME280;10959;51.328;7.322;2022-12-05T01:07:30;98701.19;;;2.47;92.83
21594;BME280;10959;51.328;7.322;2022-12-05T01:09:56;98701.16;;;2.50;92.91
21594;BME280;10959;51.328;7.322;2022-12-05T01:12:22;98700.19;;;2.54;93.07
21594;BME280;10959;51.328;7.322;2022-12-05T01:14:49;98699.19;;;2.62;93.03
21594;BME280;10959;51.328;7.322;2022-12-05T01:17:16;98710.16;;;2.43;92.81
21594;BME280;10959;51.328;7.322;2022-12-05T01:19:43;98700.88;;;2.64;92.86
21594;BME280;10959;51.328;7.322;2022-12-05T01:22:09;98702.78;;;2.57;92.91
21594;BME280;10959;51.328;7.322;2022-12-05T01:24:36;98697.16;;;2.73;92.54
21594;BME280;10959;51.328;7.322;2022-12-05T01:27:02;98698.81;;;2.80;92.29
21594;BME280;10959;51.328;7.322;2022-12-05T01:29:29;98706.06;;;2.72;92.38
21594;BME280;10959;51.328;7.322;2022-12-05T01:31:55;98706.56;;;2.44;92.79
21594;BME280;10959;51.328;7.322;2022-12-05T01:34:23;98715.34;;;2.49;93.07
21594;BME280;10959;51.328;7.322;2022-12-05T01:36:50;98708.19;;;2.54;93.47
21594;BME280;10959;51.328;7.322;2022-12-05T01:39:17;98707.47;;;2.45;92.96
21594;BME280;10959;51.328;7.322;2022-12-05T01:41:45;98709.91;;;2.55;92.73
21594;BME280;10959;51.328;7.322;2022-12-05T01:47:16;98710.16;;;2.43;93.75
21594;BME280;10959;51.328;7.322;2022-12-05T01:49:45;98715.22;;;2.55;93.32
21594;BME280;10959;51.328;7.322;2022-12-05T01:52:14;98710.59;;;2.65;92.89
21594;BME280;10959;51.328;7.322;2022-12-05T01:54:45;98712.44;;;2.63;92.62
21594;BME280;10959;51.328;7.322;2022-12-05T01:57:12;98710.44;;;2.73;93.04
21594;BME280;10959;51.328;7.322;2022-12-05T01:59:43;98713.38;;;2.61;92.79
21594;BME280;10959;51.328;7.322;2022-12-05T02:02:11;98722.88;;;2.72;92.56
21594;BME280;10959;51.328;7.322;2022-12-05T02:04:40;98728.09;;;2.77;92.39
21594;BME280;10959;51.328;7.322;2022-12-05T02:07:10;98724.50;;;2.80;92.16
21594;BME280;10959;51.328;7.322;2022-12-05T02:09:37;98726.78;;;3.00;92.21
21594;BME280;10959;51.328;7.322;2022-12-05T02:12:03;98724.72;;;3.13;91.47
21594;BME280;10959;51.328;7.322;2022-12-05T02:14:37;98729.09;;;3.17;90.79
21594;BME280;10959;51.328;7.322;2022-12-05T02:17:13;98733.91;;;2.98;90.52
21594;BME280;10959;51.328;7.322;2022-12-05T02:19:57;98728.41;;;3.07;90.48
21594;BME280;10959;51.328;7.322;2022-12-05T02:22:45;98732.03;;;3.03;90.27
21594;BME280;10959;51.328;7.322;2022-12-05T02:25:33;98729.50;;;2.97;90.26
21594;BME280;10959;51.328;7.322;2022-12-05T02:28:21;98725.41;;;2.80;90.68
21594;BME280;10959;51.328;7.322;2022-12-05T02:30:58;98732.03;;;3.03;91.01
21594;BME280;10959;51.328;7.322;2022-12-05T02:33:34;98734.53;;;3.10;90.56
21594;BME280;10959;51.328;7.322;2022-12-05T02:36:06;98725.00;;;3.00;90.56
21594;BME280;10959;51.328;7.322;2022-12-05T02:38:38;98729.91;;;3.20;90.41
21594;BME280;10959;51.328;7.322;2022-12-05T02:41:11;98726.28;;;3.24;89.94
21594;BME280;10959;51.328;7.322;2022-12-05T02:43:45;98726.28;;;3.24;89.74
21594;BME280;10959;51.328;7.322;2022-12-05T02:46:20;98731.38;;;3.34;89.67
21594;BME280;10959;51.328;7.322;2022-12-05T02:48:47;98728.75;;;3.32;89.26
21594;BME280;10959;51.328;7.322;2022-12-05T02:51:19;98732.34;;;3.29;89.51
21594;BME280;10959;51.328;7.322;2022-12-05T02:53:48;98733.34;;;3.25;89.89
21594;BME280;10959;51.328;7.322;2022-12-05T02:56:16;98739.56;;;3.26;89.90
21594;BME280;10959;51.328;7.322;2022-12-05T02:58:47;98734.38;;;3.18;89.88
21594;BME280;10959;51.328;7.322;2022-12-05T03:01:17;98739.59;;;3.23;90.07
21594;BME280;10959;51.328;7.322;2022-12-05T03:03:44;98741.28;;;3.27;90.02
21594;BME280;10959;51.328;7.322;2022-12-05T03:06:14;98741.41;;;3.21;89.98
21594;BME280;10959;51.328;7.322;2022-12-05T03:08:43;98735.28;;;3.17;90.07
21594;BME280;10959;51.328;7.322;2022-12-05T03:11:10;98737.03;;;3.18;90.14
21594;BME280;10959;51.328;7.322;2022-12-05T03:13:40;98743.00;;;3.29;90.09
21594;BME280;10959;51.328;7.322;2022-12-05T03:16:14;98744.88;;;3.26;89.81
21594;BME280;10959;51.328;7.322;2022-12-05T03:18:46;98751.06;;;3.26;89.58
21594;BME280;10959;51.328;7.322;2022-12-05T03:21:21;98743.13;;;3.25;89.44
21594;BME280;10959;51.328;7.322;2022-12-05T03:23:53;98748.19;;;3.37;89.97
21594;BME280;10959;51.328;7.322;2022-12-05T03:26:31;98744.56;;;3.40;89.01
21594;BME280;10959;51.328;7.322;2022-12-05T03:29:13;98739.25;;;3.38;89.00
21594;BME280;10959;51.328;7.322;2022-12-05T03:31:51;98739.44;;;3.31;88.97
21594;BME280;10959;51.328;7.322;2022-12-05T03:34:31;98744.13;;;3.19;88.78
21594;BME280;10959;51.328;7.322;2022-12-05T03:37:04;98734.09;;;3.32;89.10
21594;BME280;10959;51.328;7.322;2022-12-05T03:39:34;98737.69;;;3.29;89.31
21594;BME280;10959;51.328;7.322;2022-12-05T03:42:11;98729.63;;;3.33;88.78
21594;BME280;10959;51.328;7.322;2022-12-05T03:44:44;98731.25;;;3.40;88.66
21594;BME280;10959;51.328;7.322;2022-12-05T03:47:17;98731.47;;;3.31;89.12
21594;BME280;10959;51.328;7.322;2022-12-05T03:49:50;98731.31;;;3.37;89.01
21594;BME280;10959;51.328;7.322;2022-12-05T03:52:23;98737.69;;;3.29;89.09
21594;BME280;10959;51.328;7.322;2022-12-05T03:54:54;98737.44;;;3.42;88.70
21594;BME280;10959;51.328;7.322;2022-12-05T03:57:26;98731.47;;;3.31;88.88
21594;BME280;10959;51.328;7.322;2022-12-05T03:59:56;98733.22;;;3.30;88.82
21594;BME280;10959;51.328;7.322;2022-12-05T04:02:29;98745.25;;;3.07;88.76
21594;BME280;10959;51.328;7.322;2022-12-05T04:05:03;98740.94;;;3.02;89.07
21594;BME280;10959;51.328;7.322;2022-12-05T04:07:34;98747.59;;;3.21;89.43
21594;BME280;10959;51.328;7.322;2022-12-05T04:10:07;98742.09;;;3.31;88.76
21594;BME280;10959;51.328;7.322;2022-12-05T04:12:38;98743.00;;;3.29;88.46
21594;BME280;10959;51.328;7.322;2022-12-05T04:15:11;98743.00;;;3.29;88.31
21594;BME280;10959;51.328;7.322;2022-12-05T04:17:43;98749.28;;;3.25;88.21
21594;BME280;10959;51.328;7.322;2022-12-05T04:20:15;98750.13;;;3.29;88.13
21594;BME280;10959;51.328;7.322;2022-12-05T04:23:01;98749.19;;;3.32;88.27
21594;BME280;10959;51.328;7.322;2022-12-05T04:25:36;98745.75;;;3.26;88.11
21594;BME280;10959;51.328;7.322;2022-12-05T04:28:17;98745.81;;;3.23;87.62
21594;BME280;10959;51.328;7.322;2022-12-05T04:30:48;98741.97;;;3.37;87.83
21594;BME280;10959;51.328;7.322;2022-12-05T04:33:21;98745.66;;;3.29;87.73
21594;BME280;10959;51.328;7.322;2022-12-05T04:35:53;98746.47;;;3.35;87.60
21594;BME280;10959;51.328;7.322;2022-12-05T04:38:24;98746.25;;;3.44;87.47
21594;BME280;10959;51.328;7.322;2022-12-05T04:40:55;98749.88;;;3.40;87.26
21594;BME280;10959;51.328;7.322;2022-12-05T04:43:24;98756.84;;;3.45;87.41
21594;BME280;10959;51.328;7.322;2022-12-05T04:45:53;98754.97;;;3.51;87.30
21594;BME280;10959;51.328;7.322;2022-12-05T04:48:24;98760.31;;;3.51;86.90
21594;BME280;10959;51.328;7.322;2022-12-05T04:50:54;98755.78;;;3.54;87.15
21594;BME280;10959;51.328;7.322;2022-12-05T04:53:24;98746.88;;;3.55;86.51
21594;BME280;10959;51.328;7.322;2022-12-05T04:55:55;98754.16;;;3.47;86.69
21594;BME280;10959;51.328;7.322;2022-12-05T04:58:25;98748.00;;;3.45;86.76
21594;BME280;10959;51.328;7.322;2022-12-05T05:00:57;98749.13;;;3.35;86.83
21594;BME280;10959;51.328;7.322;2022-12-05T05:03:32;98742.94;;;3.33;87.22
21594;BME280;10959;51.328;7.322;2022-12-05T05:06:01;98745.41;;;3.42;87.09
21594;BME280;10959;51.328;7.322;2022-12-05T05:08:28;98750.75;;;3.42;86.94
21594;BME280;10959;51.328;7.322;2022-12-05T05:11:03;98746.66;;;3.24;86.94
21594;BME280;10959;51.328;7.322;2022-12-05T05:13:29;98752.88;;;3.24;87.27
21594;BME280;10959;51.328;7.322;2022-12-05T05:15:56;98745.66;;;3.29;87.49
21594;BME280;10959;51.328;7.322;2022-12-05T05:18:22;98754.63;;;3.25;87.52
21594;BME280;10959;51.328;7.322;2022-12-05T05:20:49;98751.84;;;3.32;87.53
21594;BME280;10959;51.328;7.322;2022-12-05T05:23:16;98752.59;;;3.37;87.72
21594;BME280;10959;51.328;7.322;2022-12-05T05:25:43;98763.06;;;3.46;87.45
21594;BME280;10959;51.328;7.322;2022-12-05T05:28:09;98764.81;;;3.47;87.22
21594;BME280;10959;51.328;7.322;2022-12-05T05:30:36;98759.44;;;3.50;87.10
21594;BME280;10959;51.328;7.322;2022-12-05T05:33:02;98763.72;;;3.57;87.07
21594;BME280;10959;51.328;7.322;2022-12-05T05:35:28;98758.31;;;3.60;86.90
21594;BME280;10959;51.328;7.322;2022-12-05T05:37:55;98761.78;;;3.64;86.51
21594;BME280;10959;51.328;7.322;2022-12-05T05:40:23;98760.91;;;3.63;86.31
21594;BME280;10959;51.328;7.322;2022-12-05T05:42:49;98765.38;;;3.61;86.47
21594;BME280;10959;51.328;7.322;2022-12-05T05:45:16;98758.19;;;3.67;86.60
21594;BME280;10959;51.328;7.322;2022-12-05T05:47:43;98758.19;;;3.67;86.39
21594;BME280;10959;51.328;7.322;2022-12-05T05:50:10;98762.72;;;3.61;86.52
21594;BME280;10959;51.328;7.322;2022-12-05T05:52:37;98771.72;;;3.57;86.22
21594;BME280;10959;51.328;7.322;2022-12-05T05:55:05;98770.03;;;3.53;86.59
21594;BME280;10959;51.328;7.322;2022-12-05T05:57:34;98767.44;;;3.49;86.60
21594;BME280;10959;51.328;7.322;2022-12-05T06:00:01;98773.44;;;3.58;86.68
21594;BME280;10959;51.328;7.322;2022-12-05T06:02:30;98778.69;;;3.61;86.26
21594;BME280;10959;51.328;7.322;2022-12-05T06:04:57;98775.06;;;3.66;86.38
21594;BME280;10959;51.328;7.322;2022-12-05T06:07:24;98777.91;;;3.58;86.33
21594;BME280;10959;51.328;7.322;2022-12-05T06:09:50;98775.94;;;3.66;86.40
21594;BME280;10959;51.328;7.322;2022-12-05T06:12:17;98782.06;;;3.70;86.15
21594;BME280;10959;51.328;7.322;2022-12-05T06:14:46;98786.56;;;3.68;85.65
21594;BME280;10959;51.328;7.322;2022-12-05T06:17:12;98789.22;;;3.68;86.06
21594;BME280;10959;51.328;7.322;2022-12-05T06:19:39;98787.59;;;3.60;85.94
21594;BME280;10959;51.328;7.322;2022-12-05T06:22:05;98784.16;;;3.55;85.87
21594;BME280;10959;51.328;7.322;2022-12-05T06:24:32;98787.72;;;3.54;86.29
21594;BME280;10959;51.328;7.322;2022-12-05T06:26:58;98793.03;;;3.54;85.98
21594;BME280;10959;51.328;7.322;2022-12-05T06:29:25;98794.94;;;3.49;85.85
21594;BME280;10959;51.328;7.322;2022-12-05T06:31:53;98793.94;;;3.55;86.00
21594;BME280;10959;51.328;7.322;2022-12-05T06:34:19;98794.75;;;3.58;85.92
21594;BME280;10959;51.328;7.322;2022-12-05T06:36:45;98788.50;;;3.59;85.94
21594;BME280;10959;51.328;7.322;2022-12-05T06:39:12;98795.75;;;3.53;85.65
21594;BME280;10959;51.328;7.322;2022-12-05T06:41:38;98791.25;;;3.56;85.78
21594;BME280;10959;51.328;7.322;2022-12-05T06:44:05;98791.09;;;3.62;85.79
21594;BME280;10959;51.328;7.322;2022-12-05T06:46:31;98796.50;;;3.59;85.64
21594;BME280;10959;51.328;7.322;2022-12-05T06:48:59;98796.56;;;3.56;85.48
21594;BME280;10959;51.328;7.322;2022-12-05T06:51:26;98802.88;;;3.52;85.59
21594;BME280;10959;51.328;7.322;2022-12-05T06:53:52;98806.50;;;3.48;85.66
21594;BME280;10959;51.328;7.322;2022-12-05T06:56:19;98805.53;;;3.52;85.78
21594;BME280;10959;51.328;7.322;2022-12-05T06:58:47;98811.00;;;3.46;85.68
21594;BME280;10959;51.328;7.322;2022-12-05T07:01:16;98805.59;;;3.49;85.70
21594;BME280;10959;51.328;7.322;2022-12-05T07:04:01;98807.34;;;3.49;85.74
21594;BME280;10959;51.328;7.322;2022-12-05T07:06:28;98807.34;;;3.49;85.64
21594;BME280;10959;51.328;7.322;2022-12-05T07:08:55;98807.28;;;3.53;85.49
21594;BME280;10959;51.328;7.322;2022-12-05T07:11:21;98819.66;;;3.54;85.43
21594;BME280;10959;51.328;7.322;2022-12-05T07:13:48;98819.63;;;3.57;85.56
21594;BME280;10959;51.328;7.322;2022-12-05T07:16:14;98818.66;;;3.60;85.58
21594;BME280;10959;51.328;7.322;2022-12-05T07:18:41;98819.41;;;3.67;85.47
21594;BME280;10959;51.328;7.322;2022-12-05T07:21:12;98822.31;;;3.54;84.86
21594;BME280;10959;51.328;7.322;2022-12-05T07:23:40;98822.31;;;3.54;85.20
21594;BME280;10959;51.328;7.322;2022-12-05T07:26:10;98819.56;;;3.60;85.03
21594;BME280;10959;51.328;7.322;2022-12-05T07:28:37;98824.88;;;3.60;85.27
21594;BME280;10959;51.328;7.322;2022-12-05T07:31:05;98823.94;;;3.61;85.23
21594;BME280;10959;51.328;7.322;2022-12-05T07:33:32;98826.56;;;3.65;85.22
21594;BME280;10959;51.328;7.322;2022-12-05T07:35:59;98828.28;;;3.67;84.93
21594;BME280;10959;51.328;7.322;2022-12-05T07:38:29;98835.59;;;3.57;84.81
21594;BME280;10959;51.328;7.322;2022-12-05T07:40:55;98836.47;;;3.58;85.00
21594;BME280;10959;51.328;7.322;2022-12-05T07:43:22;98832.94;;;3.57;85.19
21594;BME280;10959;51.328;7.322;2022-12-05T07:45:49;98831.16;;;3.58;84.98
21594;BME280;10959;51.328;7.322;2022-12-05T07:48:16;98834.22;;;3.38;85.24
21594;BME280;10959;51.328;7.322;2022-12-05T07:50:42;98841.31;;;3.39;85.56
21594;BME280;10959;51.328;7.322;2022-12-05T07:53:08;98834.22;;;3.38;85.45
21594;BME280;10959;51.328;7.322;2022-12-05T07:55:37;98838.56;;;3.42;85.50
21594;BME280;10959;51.328;7.322;2022-12-05T07:58:04;98849.09;;;3.48;85.68
21594;BME280;10959;51.328;7.322;2022-12-05T08:00:30;98842.75;;;3.54;85.32
21594;BME280;10959;51.328;7.322;2022-12-05T08:02:58;98841.72;;;3.61;84.86
21594;BME280;10959;51.328;7.322;2022-12-05T08:05:24;98841.66;;;3.64;85.21
21594;BME280;10959;51.328;7.322;2022-12-05T08:07:51;98844.34;;;3.62;84.94
21594;BME280;10959;51.328;7.322;2022-12-05T08:10:17;98839.16;;;3.56;84.79
21594;BME280;10959;51.328;7.322;2022-12-05T08:12:45;98854.19;;;3.60;85.00
21594;BME280;10959;51.328;7.322;2022-12-05T08:15:12;98847.00;;;3.62;84.77
21594;BME280;10959;51.328;7.322;2022-12-05T08:17:38;98854.91;;;3.69;85.06
21594;BME280;10959;51.328;7.322;2022-12-05T08:20:06;98860.16;;;3.72;84.57
21594;BME280;10959;51.328;7.322;2022-12-05T08:22:32;98859.25;;;3.71;84.76
21594;BME280;10959;51.328;7.322;2022-12-05T08:24:59;98868.09;;;3.73;84.37
21594;BME280;10959;51.328;7.322;2022-12-05T08:27:26;98871.56;;;3.77;84.55
21594;BME280;10959;51.328;7.322;2022-12-05T08:29:54;98870.59;;;3.81;84.70
21594;BME280;10959;51.328;7.322;2022-12-05T08:32:20;98868.78;;;3.83;84.66
21594;BME280;10959;51.328;7.322;2022-12-05T08:34:46;98877.53;;;3.88;84.52
21594;BME280;10959;51.328;7.322;2022-12-05T08:37:13;98879.31;;;3.89;84.44
21594;BME280;10959;51.328;7.322;2022-12-05T08:39:39;98881.97;;;3.89;83.94
21594;BME280;10959;51.328;7.322;2022-12-05T08:42:06;98890.78;;;3.91;84.04
21594;BME280;10959;51.328;7.322;2022-12-05T08:44:32;98881.91;;;3.92;83.97
21594;BME280;10959;51.328;7.322;2022-12-05T08:47:00;98888.91;;;3.96;83.55
21594;BME280;10959;51.328;7.322;2022-12-05T08:49:26;98891.66;;;3.93;83.74
21594;BME280;10959;51.328;7.322;2022-12-05T08:51:53;98893.38;;;3.96;83.72
21594;BME280;10959;51.328;7.322;2022-12-05T08:54:19;98891.59;;;3.96;83.78
21594;BME280;10959;51.328;7.322;2022-12-05T08:56:49;98889.91;;;3.92;83.60
21594;BME280;10959;51.328;7.322;2022-12-05T08:59:15;98897.81;;;3.95;83.35
21594;BME280;10959;51.328;7.322;2022-12-05T09:01:42;98896.03;;;3.96;83.63
21594;BME280;10959;51.328;7.322;2022-12-05T09:04:10;98897.81;;;3.95;83.15
21594;BME280;10959;51.328;7.322;2022-12-05T09:06:38;98895.22;;;3.92;83.50
21594;BME280;10959;51.328;7.322;2022-12-05T09:09:07;98904.03;;;3.96;83.37
21594;BME280;10959;51.328;7.322;2022-12-05T09:11:37;98900.47;;;3.95;83.22
21594;BME280;10959;51.328;7.322;2022-12-05T09:14:05;98905.72;;;3.98;83.50
21594;BME280;10959;51.328;7.322;2022-12-05T09:16:33;98909.19;;;4.04;83.52
21594;BME280;10959;51.328;7.322;2022-12-05T09:19:00;98901.19;;;4.04;83.47
21594;BME280;10959;51.328;7.322;2022-12-05T09:21:29;98900.28;;;4.05;83.19
21594;BME280;10959;51.328;7.322;2022-12-05T09:23:56;98902.00;;;4.09;83.34
21594;BME280;10959;51.328;7.322;2022-12-05T09:26:24;98907.25;;;4.12;83.21
21594;BME280;10959;51.328;7.322;2022-12-05T09:28:51;98914.34;;;4.13;83.27
21594;BME280;10959;51.328;7.322;2022-12-05T09:31:19;98914.25;;;4.16;82.99
21594;BME280;10959;51.328;7.322;2022-12-05T09:33:47;98912.44;;;4.18;82.87
21594;BME280;10959;51.328;7.322;2022-12-05T09:36:16;98920.44;;;4.18;82.79
21594;BME280;10959;51.328;7.322;2022-12-05T09:38:44;98924.94;;;4.16;82.57
21594;BME280;10959;51.328;7.322;2022-12-05T09:41:21;98918.94;;;4.05;82.63
21594;BME280;10959;51.328;7.322;2022-12-05T09:44:12;98918.94;;;4.05;82.95
21594;BME280;10959;51.328;7.322;2022-12-05T09:46:50;98909.13;;;4.07;82.83
21594;BME280;10959;51.328;7.322;2022-12-05T09:49:19;98911.53;;;4.19;82.94
21594;BME280;10959;51.328;7.322;2022-12-05T09:51:47;98915.03;;;4.21;83.06
21594;BME280;10959;51.328;7.322;2022-12-05T09:54:16;98915.91;;;4.22;82.83
21594;BME280;10959;51.328;7.322;2022-12-05T09:56:44;98910.56;;;4.23;82.64
21594;BME280;10959;51.328;7.322;2022-12-05T09:59:14;98909.66;;;4.23;82.69
21594;BME280;10959;51.328;7.322;2022-12-05T10:01:45;98912.34;;;4.21;82.49
21594;BME280;10959;51.328;7.322;2022-12-05T10:04:23;98907.09;;;4.18;82.57
21594;BME280;10959;51.328;7.322;2022-12-05T10:06:57;98910.63;;;4.20;82.33
21594;BME280;10959;51.328;7.322;2022-12-05T10:09:37;98905.34;;;4.17;82.34
21594;BME280;10959;51.328;7.322;2022-12-05T10:12:14;98904.44;;;4.18;82.16
21594;BME280;10959;51.328;7.322;2022-12-05T10:14:49;98903.50;;;4.21;82.21
21594;BME280;10959;51.328;7.322;2022-12-05T10:17:22;98897.97;;;4.28;82.56
21594;BME280;10959;51.328;7.322;2022-12-05T10:19:51;98893.53;;;4.29;82.49
21594;BME280;10959;51.328;7.322;2022-12-05T10:22:24;98903.38;;;4.25;82.46
21594;BME280;10959;51.328;7.322;2022-12-05T10:24:59;98905.22;;;4.23;82.56
21594;BME280;10959;51.328;7.322;2022-12-05T10:27:31;98902.47;;;4.26;82.18
21594;BME280;10959;51.328;7.322;2022-12-05T10:30:01;98906.84;;;4.30;82.26
21594;BME280;10959;51.328;7.322;2022-12-05T10:32:31;98913.03;;;4.31;82.00
21594;BME280;10959;51.328;7.322;2022-12-05T10:35:14;98908.88;;;4.19;82.00
21594;BME280;10959;51.328;7.322;2022-12-05T10:37:43;98919.22;;;4.31;82.26
21594;BME280;10959;51.328;7.322;2022-12-05T10:40:13;98913.06;;;4.29;82.10
21594;BME280;10959;51.328;7.322;2022-12-05T10:42:40;98915.59;;;4.36;82.20
21594;BME280;10959;51.328;7.322;2022-12-05T10:45:14;98912.28;;;4.24;82.02
21594;BME280;10959;51.328;7.322;2022-12-05T10:47:41;98913.84;;;4.35;82.25
21594;BME280;10959;51.328;7.322;2022-12-05T10:50:19;98915.97;;;4.19;82.03
21594;BME280;10959;51.328;7.322;2022-12-05T10:52:47;98912.97;;;4.34;82.36
21594;BME280;10959;51.328;7.322;2022-12-05T10:55:17;98915.75;;;4.29;82.17
21594;BME280;10959;51.328;7.322;2022-12-05T10:57:48;98913.06;;;4.29;81.90
21594;BME280;10959;51.328;7.322;2022-12-05T11:00:20;98919.22;;;4.31;81.60
21594;BME280;10959;51.328;7.322;2022-12-05T11:02:48;98914.72;;;4.35;81.92
21594;BME280;10959;51.328;7.322;2022-12-05T11:05:25;98913.78;;;4.38;81.97
21594;BME280;10959;51.328;7.322;2022-12-05T11:07:52;98904.94;;;4.36;82.05
21594;BME280;10959;51.328;7.322;2022-12-05T11:10:23;98907.56;;;4.37;81.83
21594;BME280;10959;51.328;7.322;2022-12-05T11:12:50;98914.59;;;4.40;81.94
21594;BME280;10959;51.328;7.322;2022-12-05T11:15:22;98905.00;;;4.32;81.69
21594;BME280;10959;51.328;7.322;2022-12-05T11:17:51;98896.81;;;4.42;82.09
21594;BME280;10959;51.328;7.322;2022-12-05T11:20:38;98901.69;;;4.21;81.79
21594;BME280;10959;51.328;7.322;2022-12-05T11:23:25;98905.28;;;4.20;81.93
21594;BME280;10959;51.328;7.322;2022-12-05T11:25:53;98896.88;;;4.39;81.91
21594;BME280;10959;51.328;7.322;2022-12-05T11:28:24;98903.03;;;4.41;81.79
21594;BME280;10959;51.328;7.322;2022-12-05T11:30:57;98899.41;;;4.45;81.75
21594;BME280;10959;51.328;7.322;2022-12-05T11:33:25;98901.16;;;4.46;81.81
21594;BME280;10959;51.328;7.322;2022-12-05T11:35:55;98892.16;;;4.50;81.63
21594;BME280;10959;51.328;7.322;2022-12-05T11:38:26;98890.50;;;4.46;81.78
21594;BME280;10959;51.328;7.322;2022-12-05T11:40:58;98890.41;;;4.49;81.52
21594;BME280;10959;51.328;7.322;2022-12-05T11:43:54;98901.34;;;4.37;81.18
21594;BME280;10959;51.328;7.322;2022-12-05T11:46:34;98888.88;;;4.39;81.25
21594;BME280;10959;51.328;7.322;2022-12-05T11:49:22;98888.03;;;4.37;81.32
21594;BME280;10959;51.328;7.322;2022-12-05T11:51:56;98888.72;;;4.45;81.42
21594;BME280;10959;51.328;7.322;2022-12-05T11:54:38;98887.94;;;4.40;81.48
21594;BME280;10959;51.328;7.322;2022-12-05T11:57:13;98882.50;;;4.46;81.43
21594;BME280;10959;51.328;7.322;2022-12-05T12:00:02;98894.25;;;4.36;81.71
21594;BME280;10959;51.328;7.322;2022-12-05T12:02:42;98874.63;;;4.40;81.66
21594;BME280;10959;51.328;7.322;2022-12-05T12:05:17;98885.78;;;4.56;81.68
21594;BME280;10959;51.328;7.322;2022-12-05T12:07:57;98885.16;;;4.46;81.69
21594;BME280;10959;51.328;7.322;2022-12-05T12:10:29;98893.81;;;4.54;81.50
21594;BME280;10959;51.328;7.322;2022-12-05T12:13:09;98886.88;;;4.47;81.56
21594;BME280;10959;51.328;7.322;2022-12-05T12:15:48;98885.09;;;4.49;81.46
21594;BME280;10959;51.328;7.322;2022-12-05T12:18:26;98892.22;;;4.47;81.18
21594;BME280;10959;51.328;7.322;2022-12-05T12:21:06;98891.31;;;4.48;81.47
21594;BME280;10959;51.328;7.322;2022-12-05T12:23:49;98894.06;;;4.45;81.68
21594;BME280;10959;51.328;7.322;2022-12-05T12:26:23;98885.00;;;4.52;81.58
21594;BME280;10959;51.328;7.322;2022-12-05T12:29:03;98890.53;;;4.43;81.76
21594;BME280;10959;51.328;7.322;2022-12-05T12:31:47;98886.09;;;4.43;81.43
21594;BME280;10959;51.328;7.322;2022-12-05T12:34:28;98892.44;;;4.38;81.35
21594;BME280;10959;51.328;7.322;2022-12-05T12:37:01;98891.28;;;4.49;81.40
21594;BME280;10959;51.328;7.322;2022-12-05T12:39:39;98892.38;;;4.41;81.28
21594;BME280;10959;51.328;7.322;2022-12-05T12:42:19;98892.44;;;4.38;81.32
21594;BME280;10959;51.328;7.322;2022-12-05T12:45:02;98892.66;;;4.28;81.29
21594;BME280;10959;51.328;7.322;2022-12-05T12:47:38;98892.53;;;4.35;81.60
21594;BME280;10959;51.328;7.322;2022-12-05T12:50:13;98889.78;;;4.38;81.50
21594;BME280;10959;51.328;7.322;2022-12-05T12:52:53;98895.38;;;4.25;81.50
21594;BME280;10959;51.328;7.322;2022-12-05T12:55:30;98892.56;;;4.31;81.57
21594;BME280;10959;51.328;7.322;2022-12-05T12:58:14;98886.50;;;4.26;81.31
21594;BME280;10959;51.328;7.322;2022-12-05T13:00:53;98893.63;;;4.24;81.65
21594;BME280;10959;51.328;7.322;2022-12-05T13:03:25;98887.31;;;4.28;81.41
21594;BME280;10959;51.328;7.322;2022-12-05T13:05:57;98885.63;;;4.24;81.02
21594;BME280;10959;51.328;7.322;2022-12-05T13:08:27;98887.41;;;4.25;81.54
21594;BME280;10959;51.328;7.322;2022-12-05T13:10:58;98887.41;;;4.25;81.44
21594;BME280;10959;51.328;7.322;2022-12-05T13:13:29;98890.03;;;4.27;81.62
21594;BME280;10959;51.328;7.322;2022-12-05T13:16:00;98882.06;;;4.25;81.63
21594;BME280;10959;51.328;7.322;2022-12-05T13:18:27;98882.00;;;4.28;81.47
21594;BME280;10959;51.328;7.322;2022-12-05T13:20:56;98877.59;;;4.27;81.37
21594;BME280;10959;51.328;7.322;2022-12-05T13:23:25;98883.75;;;4.29;81.44
21594;BME280;10959;51.328;7.322;2022-12-05T13:25:54;98878.41;;;4.29;81.37
21594;BME280;10959;51.328;7.322;2022-12-05T13:28:26;98882.91;;;4.27;81.20
21594;BME280;10959;51.328;7.322;2022-12-05T13:30:54;98878.50;;;4.26;81.25